createdAt,value
2022-10-10T00:01:23.910Z,12.22
2022-10-10T00:03:50.938Z,12.15
2022-10-10T00:06:18.394Z,12.13
2022-10-10T00:08:46.383Z,12.19
2022-10-10T00:11:15.370Z,11.78
2022-10-10T00:13:42.453Z,12.13
2022-10-10T00:16:10.203Z,12.08
2022-10-10T00:18:38.206Z,12.08
2022-10-10T00:21:05.369Z,12.03
2022-10-10T00:23:32.368Z,11.84
2022-10-10T00:25:59.579Z,11.69
2022-10-10T00:28:27.393Z,11.86
2022-10-10T00:30:54.617Z,11.99
2022-10-10T00:33:21.514Z,11.94
2022-10-10T00:35:49.531Z,11.84
2022-10-10T00:38:16.990Z,11.92
2022-10-10T00:40:52.720Z,11.92
2022-10-10T00:43:20.929Z,11.89
2022-10-10T00:45:49.135Z,11.89
2022-10-10T00:48:22.767Z,11.60
2022-10-10T00:50:52.803Z,11.87
2022-10-10T00:53:23.869Z,11.83
2022-10-10T00:55:51.793Z,11.40
2022-10-10T00:58:20.423Z,11.80
2022-10-10T01:00:47.532Z,11.60
2022-10-10T01:03:14.787Z,11.62
2022-10-10T01:05:43.700Z,11.55
2022-10-10T01:08:11.121Z,11.49
2022-10-10T01:11:04.929Z,11.38
2022-10-10T01:14:10.246Z,11.74
2022-10-10T01:16:50.981Z,11.73
2022-10-10T01:19:45.644Z,11.41
2022-10-10T01:22:32.772Z,11.63
2022-10-10T01:25:05.373Z,11.62
2022-10-10T01:27:42.764Z,11.64
2022-10-10T01:30:20.746Z,11.09
2022-10-10T01:32:54.224Z,11.68
2022-10-10T01:35:41.034Z,11.39
2022-10-10T01:38:10.779Z,11.63
2022-10-10T01:40:51.209Z,11.41
2022-10-10T01:43:18.731Z,11.64
2022-10-10T01:45:51.288Z,11.64
2022-10-10T01:48:27.656Z,11.64
2022-10-10T01:51:29.662Z,11.67
2022-10-10T01:54:18.515Z,11.34
2022-10-10T01:57:10.150Z,11.42
2022-10-10T01:59:49.149Z,11.61
2022-10-10T02:02:34.318Z,11.63
2022-10-10T02:05:17.590Z,11.63
2022-10-10T02:08:11.042Z,11.63
2022-10-10T02:10:46.680Z,11.50
2022-10-10T02:13:16.096Z,11.66
2022-10-10T02:15:47.674Z,11.66
2022-10-10T02:18:18.972Z,11.55
2022-10-10T02:20:46.357Z,11.70
2022-10-10T02:23:16.791Z,11.68
2022-10-10T02:25:50.815Z,11.56
2022-10-10T02:28:38.034Z,11.48
2022-10-10T02:31:10.551Z,11.49
2022-10-10T02:33:53.439Z,11.02
2022-10-10T02:36:22.089Z,11.45
2022-10-10T02:38:52.504Z,11.44
2022-10-10T02:41:21.868Z,11.16
2022-10-10T02:43:50.297Z,11.08
2022-10-10T02:46:18.080Z,11.44
2022-10-10T02:48:45.292Z,10.68
2022-10-10T02:51:14.605Z,11.24
2022-10-10T02:53:41.577Z,10.96
2022-10-10T02:56:08.806Z,11.25
2022-10-10T02:58:35.862Z,11.32
2022-10-10T03:01:02.923Z,11.26
2022-10-10T03:03:29.965Z,11.23
2022-10-10T03:05:56.894Z,11.22
2022-10-10T03:08:23.905Z,11.19
2022-10-10T03:10:59.150Z,11.39
2022-10-10T03:13:26.776Z,11.22
2022-10-10T03:15:54.107Z,11.40
2022-10-10T03:18:20.987Z,11.27
2022-10-10T03:20:52.951Z,11.42
2022-10-10T03:23:20.472Z,11.43
2022-10-10T03:25:47.825Z,11.13
2022-10-10T03:28:15.209Z,11.44
2022-10-10T03:30:42.698Z,11.21
2022-10-10T03:33:10.324Z,11.37
2022-10-10T03:35:37.526Z,11.41
2022-10-10T03:38:04.941Z,11.43
2022-10-10T03:40:33.891Z,11.27
2022-10-10T03:43:00.937Z,11.33
2022-10-10T03:45:27.919Z,11.21
2022-10-10T03:47:54.934Z,11.26
2022-10-10T03:50:21.865Z,10.94
2022-10-10T03:52:49.064Z,11.25
2022-10-10T03:55:16.388Z,10.99
2022-10-10T03:57:44.033Z,11.05
2022-10-10T04:00:12.005Z,11.04
2022-10-10T04:02:38.940Z,11.25
2022-10-10T04:05:06.451Z,11.14
2022-10-10T04:07:33.494Z,10.71
2022-10-10T04:10:00.415Z,10.93
2022-10-10T04:12:27.380Z,11.07
2022-10-10T04:14:54.336Z,11.12
2022-10-10T04:17:21.440Z,10.88
2022-10-10T04:19:48.439Z,10.91
2022-10-10T04:22:16.689Z,10.87
2022-10-10T04:24:44.247Z,10.67
2022-10-10T04:27:11.386Z,10.89
2022-10-10T04:29:38.358Z,10.64
2022-10-10T04:32:05.833Z,10.58
2022-10-10T04:34:35.614Z,10.73
2022-10-10T04:37:02.581Z,10.59
2022-10-10T04:39:30.041Z,10.61
2022-10-10T04:41:56.971Z,10.75
2022-10-10T04:44:24.032Z,10.63
2022-10-10T04:46:51.045Z,10.61
2022-10-10T04:49:18.084Z,10.57
2022-10-10T04:51:45.083Z,10.80
2022-10-10T04:54:12.087Z,10.74
2022-10-10T04:56:41.225Z,10.93
2022-10-10T04:59:09.204Z,10.83
2022-10-10T05:01:36.561Z,10.59
2022-10-10T05:04:04.288Z,10.74
2022-10-10T05:06:31.590Z,10.72
2022-10-10T05:08:58.595Z,10.71
2022-10-10T05:11:25.606Z,10.79
2022-10-10T05:13:52.572Z,10.78
2022-10-10T05:16:19.557Z,10.64
2022-10-10T05:18:46.572Z,10.74
2022-10-10T05:21:13.510Z,10.56
2022-10-10T05:23:41.894Z,10.13
2022-10-10T05:26:09.804Z,10.79
2022-10-10T05:28:37.009Z,10.66
2022-10-10T05:31:05.116Z,10.94
2022-10-10T05:33:33.673Z,10.82
2022-10-10T05:36:10.773Z,11.00
2022-10-10T05:38:38.574Z,11.13
2022-10-10T05:41:06.667Z,11.26
2022-10-10T05:43:33.961Z,11.28
2022-10-10T05:46:01.557Z,11.09
2022-10-10T05:48:28.609Z,11.39
2022-10-10T05:50:57.933Z,11.00
2022-10-10T05:53:26.808Z,11.05
2022-10-10T05:55:54.527Z,11.59
2022-10-10T05:58:21.499Z,11.66
2022-10-10T06:00:49.160Z,11.74
2022-10-10T06:03:17.364Z,11.83
2022-10-10T06:05:46.270Z,11.92
2022-10-10T06:08:13.330Z,11.96
2022-10-10T06:10:43.372Z,12.03
2022-10-10T06:13:11.790Z,11.83
2022-10-10T06:15:38.769Z,11.98
2022-10-10T06:18:06.481Z,12.16
2022-10-10T06:20:41.262Z,12.20
2022-10-10T06:23:09.138Z,12.09
2022-10-10T06:25:41.823Z,12.27
2022-10-10T06:28:09.923Z,12.29
2022-10-10T06:30:44.116Z,12.25
2022-10-10T06:33:12.534Z,12.40
2022-10-10T06:35:44.232Z,12.46
2022-10-10T06:38:11.339Z,12.48
2022-10-10T06:40:39.403Z,12.49
2022-10-10T06:43:12.250Z,12.52
2022-10-10T06:45:41.933Z,12.57
2022-10-10T06:48:09.668Z,12.57
2022-10-10T06:50:36.966Z,12.63
2022-10-10T06:53:04.189Z,12.49
2022-10-10T06:55:31.424Z,12.68
2022-10-10T06:57:59.218Z,12.83
2022-10-10T07:00:26.314Z,12.88
2022-10-10T07:02:53.553Z,12.91
2022-10-10T07:05:20.787Z,13.00
2022-10-10T07:07:47.787Z,12.97
2022-10-10T07:10:16.019Z,13.14
2022-10-10T07:12:45.071Z,13.10
2022-10-10T07:15:12.879Z,13.22
2022-10-10T07:17:40.284Z,13.42
2022-10-10T07:20:07.666Z,13.49
2022-10-10T07:22:35.195Z,13.45
2022-10-10T07:25:02.118Z,13.58
2022-10-10T07:27:29.069Z,13.82
2022-10-10T07:29:56.018Z,13.91
2022-10-10T07:32:23.082Z,14.03
2022-10-10T07:34:51.059Z,14.12
2022-10-10T07:37:18.177Z,14.01
2022-10-10T07:39:45.369Z,14.27
2022-10-10T07:42:12.564Z,14.26
2022-10-10T07:44:39.560Z,14.46
2022-10-10T07:47:06.548Z,14.60
2022-10-10T07:49:33.481Z,14.69
2022-10-10T07:52:01.672Z,14.84
2022-10-10T07:54:30.540Z,14.94
2022-10-10T07:56:58.233Z,14.91
2022-10-10T07:59:25.509Z,15.00
2022-10-10T08:01:52.816Z,15.19
2022-10-10T08:04:20.082Z,15.28
2022-10-10T08:06:47.026Z,15.38
2022-10-10T08:09:13.988Z,15.37
2022-10-10T08:11:40.871Z,15.68
2022-10-10T08:14:08.188Z,15.77
2022-10-10T08:16:35.469Z,15.85
2022-10-10T08:19:02.626Z,15.89
2022-10-10T08:21:29.680Z,15.83
2022-10-10T08:23:56.717Z,15.97
2022-10-10T08:26:23.764Z,16.06
2022-10-10T08:28:50.837Z,15.86
2022-10-10T08:31:20.440Z,16.19
2022-10-10T08:33:49.421Z,15.91
2022-10-10T08:36:22.253Z,16.36
2022-10-10T08:38:50.025Z,16.13
2022-10-10T08:41:54.150Z,16.53
2022-10-10T08:44:45.493Z,16.63
2022-10-10T08:47:26.668Z,16.50
2022-10-10T08:50:06.213Z,16.84
2022-10-10T08:52:45.741Z,16.93
2022-10-10T08:55:33.986Z,17.02
2022-10-10T08:58:24.245Z,17.08
2022-10-10T09:01:23.746Z,17.23
2022-10-10T09:03:55.664Z,17.28
2022-10-10T09:07:00.074Z,17.39
2022-10-10T09:09:36.284Z,17.41
2022-10-10T09:12:26.667Z,17.49
2022-10-10T09:15:23.703Z,17.60
2022-10-10T09:18:22.801Z,17.68
2022-10-10T09:21:14.932Z,17.68
2022-10-10T09:23:53.703Z,17.66
2022-10-10T09:26:26.243Z,17.89
2022-10-10T09:29:04.723Z,17.91
2022-10-10T09:31:49.482Z,17.90
2022-10-10T09:34:31.573Z,17.80
2022-10-10T09:37:02.439Z,17.95
2022-10-10T09:39:32.788Z,17.97
2022-10-10T09:42:12.245Z,17.95
2022-10-10T09:44:40.558Z,17.99
2022-10-10T09:47:07.635Z,17.62
2022-10-10T09:49:35.483Z,18.07
2022-10-10T09:52:18.024Z,17.97
2022-10-10T09:54:45.047Z,18.08
2022-10-10T09:57:15.989Z,18.38
2022-10-10T09:59:45.840Z,18.36
2022-10-10T10:02:12.992Z,18.37
2022-10-10T10:04:40.057Z,18.01
2022-10-10T10:07:30.060Z,18.36
2022-10-10T10:10:00.170Z,18.37
2022-10-10T10:12:44.360Z,18.41
2022-10-10T10:15:29.932Z,18.44
2022-10-10T10:18:13.463Z,18.40
2022-10-10T10:20:46.300Z,18.35
2022-10-10T10:23:44.722Z,18.51
2022-10-10T10:26:17.618Z,18.52
2022-10-10T10:28:45.979Z,18.35
2022-10-10T10:31:42.683Z,18.34
2022-10-10T10:34:20.184Z,18.60
2022-10-10T10:36:47.204Z,18.62
2022-10-10T10:39:47.674Z,18.57
2022-10-10T10:42:39.181Z,18.57
2022-10-10T10:45:16.877Z,18.50
2022-10-10T10:48:07.038Z,18.57
2022-10-10T10:50:40.109Z,18.32
2022-10-10T10:53:34.685Z,18.49
2022-10-10T10:56:26.342Z,18.67
2022-10-10T11:02:08.099Z,18.75
2022-10-10T11:05:21.395Z,18.75
2022-10-10T11:07:49.200Z,18.77
2022-10-10T11:10:28.975Z,18.88
2022-10-10T11:13:32.924Z,18.61
2022-10-10T11:16:20.354Z,18.94
2022-10-10T11:19:15.511Z,18.91
2022-10-10T11:21:56.352Z,18.79
2022-10-10T11:24:29.468Z,18.85
2022-10-10T11:27:02.764Z,19.01
2022-10-10T11:29:50.857Z,18.84
2022-10-10T11:32:23.369Z,19.10
2022-10-10T11:35:08.851Z,19.07
2022-10-10T11:37:42.407Z,18.87
2022-10-10T11:40:27.482Z,18.82
2022-10-10T11:43:02.996Z,19.15
2022-10-10T11:45:35.632Z,19.00
2022-10-10T11:48:08.056Z,19.08
2022-10-10T11:50:40.591Z,19.12
2022-10-10T11:53:17.673Z,19.17
2022-10-10T11:56:10.068Z,19.24
2022-10-10T11:58:42.752Z,18.97
2022-10-10T12:01:15.617Z,19.24
2022-10-10T12:03:42.717Z,19.01
2022-10-10T12:06:31.619Z,19.10
2022-10-10T12:09:13.498Z,19.29
2022-10-10T12:11:53.989Z,19.32
2022-10-10T12:14:23.201Z,19.47
2022-10-10T12:16:50.741Z,19.37
2022-10-10T12:19:26.840Z,19.46
2022-10-10T12:22:05.619Z,19.40
2022-10-10T12:25:00.314Z,19.31
2022-10-10T12:27:42.717Z,19.12
2022-10-10T12:30:09.730Z,19.33
2022-10-10T12:32:38.613Z,19.28
2022-10-10T12:35:28.032Z,19.24
2022-10-10T12:38:16.937Z,18.98
2022-10-10T12:41:08.493Z,19.24
2022-10-10T12:43:44.423Z,19.37
2022-10-10T12:46:29.551Z,19.18
2022-10-10T12:49:14.710Z,19.37
2022-10-10T12:51:43.485Z,19.29
2022-10-10T12:54:24.684Z,19.22
2022-10-10T12:57:01.652Z,19.28
2022-10-10T12:59:29.129Z,19.21
2022-10-10T13:02:03.100Z,19.34
2022-10-10T13:04:30.868Z,18.96
2022-10-10T13:07:01.458Z,18.94
2022-10-10T13:09:35.455Z,19.06
2022-10-10T13:12:05.590Z,18.85
2022-10-10T13:14:42.120Z,18.89
2022-10-10T13:17:27.332Z,18.89
2022-10-10T13:19:56.010Z,19.07
2022-10-10T13:22:23.648Z,19.09
2022-10-10T13:24:52.003Z,18.94
2022-10-10T13:27:23.073Z,19.22
2022-10-10T13:29:51.294Z,19.12
2022-10-10T13:32:25.969Z,19.08
2022-10-10T13:34:58.934Z,19.26
2022-10-10T13:37:26.350Z,19.08
2022-10-10T13:39:54.034Z,18.95
2022-10-10T13:42:26.866Z,18.95
2022-10-10T13:44:54.975Z,18.88
2022-10-10T13:47:49.538Z,19.14
2022-10-10T13:50:25.634Z,19.16
2022-10-10T13:53:26.689Z,19.19
2022-10-10T13:55:59.991Z,19.22
2022-10-10T13:58:33.742Z,19.21
2022-10-10T14:01:03.596Z,19.19
2022-10-10T14:03:33.320Z,19.09
2022-10-10T14:06:00.726Z,19.12
2022-10-10T14:08:32.722Z,19.10
2022-10-10T14:11:05.502Z,19.13
2022-10-10T14:13:34.599Z,19.04
2022-10-10T14:16:12.324Z,19.13
2022-10-10T14:18:39.327Z,19.14
2022-10-10T14:21:08.450Z,19.17
2022-10-10T14:23:37.000Z,19.19
2022-10-10T14:26:05.353Z,19.03
2022-10-10T14:28:34.124Z,19.23
2022-10-10T14:31:01.545Z,19.05
2022-10-10T14:33:28.655Z,19.17
2022-10-10T14:35:58.165Z,19.07
2022-10-10T14:38:25.875Z,18.98
2022-10-10T14:40:54.062Z,19.07
2022-10-10T14:43:22.700Z,19.10
2022-10-10T14:45:51.525Z,19.05
2022-10-10T14:48:19.435Z,18.96
2022-10-10T14:50:48.442Z,19.01
2022-10-10T14:53:15.968Z,18.91
2022-10-10T14:55:43.879Z,18.92
2022-10-10T14:58:19.034Z,18.54
2022-10-10T15:00:46.905Z,18.90
2022-10-10T15:03:14.474Z,18.61
2022-10-10T15:05:41.783Z,18.69
2022-10-10T15:08:10.533Z,18.90
2022-10-10T15:10:37.523Z,18.80
2022-10-10T15:13:04.643Z,18.48
2022-10-10T15:15:31.650Z,18.64
2022-10-10T15:17:59.597Z,18.49
2022-10-10T15:20:31.336Z,18.55
2022-10-10T15:23:04.345Z,18.53
2022-10-10T15:25:34.009Z,18.51
2022-10-10T15:28:02.977Z,18.43
2022-10-10T15:30:30.627Z,18.41
2022-10-10T15:32:57.705Z,18.34
2022-10-10T15:35:25.245Z,18.24
2022-10-10T15:37:52.726Z,17.68
2022-10-10T15:40:23.688Z,18.20
2022-10-10T15:42:51.331Z,18.13
2022-10-10T15:45:43.520Z,18.04
2022-10-10T15:48:06.025Z,17.97
2022-10-10T15:50:36.104Z,17.88
2022-10-10T15:53:03.185Z,17.87
2022-10-10T15:55:30.112Z,17.85
2022-10-10T15:57:57.120Z,17.65
2022-10-10T16:00:24.172Z,17.49
2022-10-10T16:02:51.263Z,17.49
2022-10-10T16:05:18.208Z,17.48
2022-10-10T16:07:48.382Z,17.48
2022-10-10T16:10:16.224Z,17.44
2022-10-10T16:12:43.331Z,17.47
2022-10-10T16:15:10.506Z,17.45
2022-10-10T16:17:37.479Z,17.26
2022-10-10T16:20:05.088Z,17.21
2022-10-10T16:22:32.036Z,17.22
2022-10-10T16:27:46.360Z,16.92
2022-10-10T16:30:13.636Z,17.05
2022-10-10T16:32:42.543Z,16.96
2022-10-10T16:35:11.032Z,16.92
2022-10-10T16:37:39.179Z,16.75
2022-10-10T16:40:07.437Z,16.60
2022-10-10T16:42:34.881Z,16.44
2022-10-10T16:45:01.986Z,16.73
2022-10-10T16:47:28.967Z,16.66
2022-10-10T16:49:55.940Z,16.46
2022-10-10T16:52:23.040Z,16.44
2022-10-10T16:54:52.225Z,16.46
2022-10-10T16:57:20.110Z,16.51
2022-10-10T16:59:47.177Z,16.25
2022-10-10T17:02:14.230Z,16.28
2022-10-10T17:04:41.169Z,16.40
2022-10-10T17:07:08.140Z,16.37
2022-10-10T17:09:35.143Z,16.25
2022-10-10T17:12:02.175Z,15.99
2022-10-10T17:14:29.287Z,16.20
2022-10-10T17:17:13.046Z,16.14
2022-10-10T17:19:40.664Z,15.89
2022-10-10T17:22:07.933Z,15.76
2022-10-10T17:24:36.067Z,16.00
2022-10-10T17:27:03.184Z,15.97
2022-10-10T17:29:32.023Z,15.81
2022-10-10T17:32:02.723Z,15.84
2022-10-10T17:34:32.976Z,15.83
2022-10-10T17:36:59.936Z,15.68
2022-10-10T17:39:26.996Z,15.77
2022-10-10T17:41:54.044Z,15.54
2022-10-10T17:44:21.336Z,15.56
2022-10-10T17:46:48.290Z,15.63
2022-10-10T17:49:15.303Z,15.65
2022-10-10T17:51:42.459Z,15.53
2022-10-10T17:54:10.200Z,15.59
2022-10-10T17:56:37.715Z,15.40
2022-10-10T17:59:06.590Z,15.37
2022-10-10T18:01:35.469Z,15.35
2022-10-10T18:04:02.542Z,15.30
2022-10-10T18:06:30.040Z,15.10
2022-10-10T18:08:57.865Z,15.10
2022-10-10T18:11:28.908Z,15.09
2022-10-10T18:14:00.496Z,14.90
2022-10-10T18:16:32.357Z,14.99
2022-10-10T18:19:00.357Z,14.89
2022-10-10T18:21:27.352Z,14.90
2022-10-10T18:23:54.818Z,14.65
2022-10-10T18:26:24.766Z,14.89
2022-10-10T18:28:55.958Z,14.83
2022-10-10T18:31:26.262Z,14.82
2022-10-10T18:33:53.925Z,14.61
2022-10-10T18:36:24.503Z,14.64
2022-10-10T18:38:52.062Z,14.73
2022-10-10T18:41:21.827Z,14.71
2022-10-10T18:43:49.778Z,14.50
2022-10-10T18:46:19.638Z,14.52
2022-10-10T18:48:51.527Z,14.60
2022-10-10T18:51:27.094Z,14.56
2022-10-10T18:54:02.269Z,14.41
2022-10-10T18:56:31.360Z,14.59
2022-10-10T18:59:03.541Z,14.35
2022-10-10T19:01:33.540Z,14.42
2022-10-10T19:04:00.785Z,14.53
2022-10-10T19:06:28.078Z,14.55
2022-10-10T19:08:57.026Z,14.31
2022-10-10T19:11:32.878Z,14.59
2022-10-10T19:14:01.775Z,14.60
2022-10-10T19:16:29.476Z,14.52
2022-10-10T19:18:58.692Z,14.59
2022-10-10T19:21:28.026Z,14.50
2022-10-10T19:23:55.454Z,14.53
2022-10-10T19:26:22.572Z,14.53
2022-10-10T19:28:49.747Z,14.52
2022-10-10T19:31:18.471Z,14.50
2022-10-10T19:33:50.317Z,14.47
2022-10-10T19:36:17.427Z,14.43
2022-10-10T19:38:44.795Z,14.32
2022-10-10T19:41:14.142Z,14.34
2022-10-10T19:43:42.952Z,14.15
2022-10-10T19:46:12.700Z,14.36
2022-10-10T19:48:40.527Z,14.33
2022-10-10T19:51:13.301Z,14.06
2022-10-10T19:53:41.754Z,14.27
2022-10-10T19:56:15.054Z,14.14
2022-10-10T19:58:43.784Z,13.95
2022-10-10T20:01:13.713Z,14.14
2022-10-10T20:03:41.539Z,14.19
2022-10-10T20:06:08.630Z,14.19
2022-10-10T20:08:36.089Z,13.90
2022-10-10T20:11:03.373Z,13.99
2022-10-10T20:13:31.467Z,13.98
2022-10-10T20:16:03.904Z,14.00
2022-10-10T20:18:34.006Z,14.02
2022-10-10T20:21:06.297Z,14.15
2022-10-10T20:23:33.220Z,13.85
2022-10-10T20:26:00.325Z,13.89
2022-10-10T20:28:27.586Z,13.95
2022-10-10T20:30:54.676Z,14.01
2022-10-10T20:33:21.993Z,14.00
2022-10-10T20:35:53.619Z,13.69
2022-10-10T20:38:23.020Z,13.78
2022-10-10T20:40:50.036Z,14.00
2022-10-10T20:43:16.966Z,13.79
2022-10-10T20:45:43.935Z,13.91
2022-10-10T20:48:11.018Z,13.80
2022-10-10T20:50:39.002Z,13.86
2022-10-10T20:53:06.815Z,13.88
2022-10-10T20:55:33.979Z,13.81
2022-10-10T20:58:00.945Z,13.86
2022-10-10T21:00:28.153Z,13.85
2022-10-10T21:02:56.617Z,13.83
2022-10-10T21:05:23.914Z,13.84
2022-10-10T21:07:51.030Z,13.45
2022-10-10T21:10:18.113Z,13.73
2022-10-10T21:12:45.077Z,13.70
2022-10-10T21:15:12.163Z,13.50
2022-10-10T21:17:39.213Z,13.74
2022-10-10T21:20:07.264Z,13.59
2022-10-10T21:22:34.341Z,13.72
2022-10-10T21:25:01.418Z,13.59
2022-10-10T21:27:28.446Z,13.47
2022-10-10T21:29:55.875Z,13.39
2022-10-10T21:32:22.982Z,13.70
2022-10-10T21:34:54.279Z,13.68
2022-10-10T21:37:24.805Z,13.65
2022-10-10T21:39:51.756Z,13.72
2022-10-10T21:42:19.521Z,13.67
2022-10-10T21:44:46.610Z,13.50
2022-10-10T21:47:13.559Z,13.63
2022-10-10T21:49:40.471Z,13.54
2022-10-10T21:52:07.388Z,13.49
2022-10-10T21:54:34.289Z,13.47
2022-10-10T21:57:01.316Z,13.43
2022-10-10T21:59:31.810Z,13.45
2022-10-10T22:01:59.010Z,13.20
2022-10-10T22:04:28.972Z,13.22
2022-10-10T22:06:56.473Z,13.40
2022-10-10T22:09:23.453Z,13.06
2022-10-10T22:11:50.432Z,13.26
2022-10-10T22:14:17.708Z,13.36
2022-10-10T22:16:46.342Z,13.27
2022-10-10T22:19:13.328Z,13.30
2022-10-10T22:21:40.319Z,13.30
2022-10-10T22:24:08.993Z,13.28
2022-10-10T22:26:36.494Z,13.29
2022-10-10T22:29:04.750Z,13.26
2022-10-10T22:31:31.814Z,13.24
2022-10-10T22:33:58.925Z,13.24
2022-10-10T22:36:25.942Z,13.19
2022-10-10T22:38:53.140Z,13.17
2022-10-10T22:41:20.131Z,13.08
2022-10-10T22:43:47.458Z,12.88
2022-10-10T22:46:14.492Z,12.71
2022-10-10T22:48:41.718Z,12.70
2022-10-10T22:51:12.384Z,12.59
2022-10-10T22:53:41.006Z,12.72
2022-10-10T22:56:09.629Z,12.97
2022-10-10T22:58:37.055Z,13.03
2022-10-10T23:01:10.040Z,12.92
2022-10-10T23:03:37.173Z,12.62
2022-10-10T23:06:05.080Z,13.08
2022-10-10T23:08:32.408Z,12.89
2022-10-10T23:10:59.685Z,12.38
2022-10-10T23:13:26.809Z,12.61
2022-10-10T23:15:53.933Z,12.80
2022-10-10T23:18:20.922Z,12.80
2022-10-10T23:20:49.505Z,12.77
2022-10-10T23:23:18.083Z,12.64
2022-10-10T23:25:47.436Z,12.80
2022-10-10T23:28:15.953Z,12.55
2022-10-10T23:30:44.993Z,12.69
2022-10-10T23:33:12.921Z,12.69
2022-10-10T23:35:39.920Z,12.65
2022-10-10T23:38:07.323Z,12.69
2022-10-10T23:40:34.601Z,12.72
2022-10-10T23:43:01.682Z,12.34
2022-10-10T23:45:28.790Z,12.57
2022-10-10T23:47:55.799Z,12.57
2022-10-10T23:50:22.745Z,12.57
2022-10-10T23:52:49.721Z,12.52
2022-10-10T23:55:16.721Z,12.54
2022-10-10T23:57:43.624Z,12.48
